Time;durP1;ratioP1;P1;durP2;ratioP2;P2;SDS_P1;SDS_P2;PMS_P1;PMS_P2;Temp;Humidity;BMP_temperature;BMP_pressure;BME280_temperature;BME280_humidity;BME280_pressure;Samples;Min_cycle;Max_cycle;Signal;HPM_P1;HPM_P2
2024/01/30 00:00:21;;;;;;;29.47;13.37;;;;;;;6.27;100.00;102117.44;5034091;28;20110;-81
2024/01/30 00:02:46;;;;;;;25.77;13.50;;;;;;;6.17;100.00;102108.41;5031794;28;20294;-77
2024/01/30 00:05:12;;;;;;;22.23;13.67;;;;;;;6.25;100.00;102130.00;5029744;28;20291;-77
2024/01/30 00:07:37;;;;;;;29.90;15.50;;;;;;;6.25;100.00;102124.69;5029970;28;20139;-78
2024/01/30 00:10:03;;;;;;;30.93;15.77;;;;;;;6.31;100.00;102132.22;5015395;28;20024;-77
2024/01/30 00:12:28;;;;;;;24.27;14.13;;;;;;;6.30;100.00;102130.53;5015245;28;20044;-77
2024/01/30 00:14:54;;;;;;;26.80;15.67;;;;;;;6.30;100.00;102127.03;5031932;28;20112;-78
2024/01/30 00:17:20;;;;;;;28.25;14.05;;;;;;;6.26;100.00;102115.78;5016243;28;20041;-76
2024/01/30 00:19:46;;;;;;;;;;;;;;;6.32;100.00;102120.69;5045956;28;20065;-76
2024/01/30 00:22:11;;;;;;;26.88;14.20;;;;;;;6.29;100.00;102104.94;5032061;28;19956;-76
2024/01/30 00:24:36;;;;;;;27.53;15.10;;;;;;;6.25;100.00;102090.22;5045669;28;20071;-77
2024/01/30 00:27:02;;;;;;;26.65;14.13;;;;;;;6.17;100.00;102094.31;5031706;28;20147;-76
2024/01/30 00:29:30;;;;;;;25.25;14.48;;;;;;;6.10;100.00;102094.69;5030608;28;20036;-77
2024/01/30 00:31:56;;;;;;;25.60;13.35;;;;;;;6.09;100.00;102122.19;5049364;28;20041;-76
2024/01/30 00:34:21;;;;;;;24.38;13.80;;;;;;;6.02;100.00;102112.94;5030926;28;20021;-75
2024/01/30 00:36:47;;;;;;;21.13;13.10;;;;;;;5.97;100.00;102132.72;5014849;28;20495;-77
2024/01/30 00:39:12;;;;;;;22.70;13.03;;;;;;;5.98;100.00;102137.09;5031042;28;20036;-77
2024/01/30 00:41:38;;;;;;;20.37;12.87;;;;;;;5.98;100.00;102132.63;5014599;28;20779;-76
2024/01/30 00:44:03;;;;;;;27.30;15.07;;;;;;;6.01;100.00;102136.88;5031477;28;20057;-77
2024/01/30 00:46:28;;;;;;;37.67;14.90;;;;;;;5.99;100.00;102128.16;5032394;28;20032;-77
2024/01/30 00:48:54;;;;;;;27.80;14.83;;;;;;;5.93;100.00;102113.50;5045952;28;20063;-75
2024/01/30 00:51:19;;;;;;;21.77;12.93;;;;;;;5.89;100.00;102120.78;5049338;28;20024;-77
2024/01/30 00:53:45;;;;;;;24.87;14.30;;;;;;;5.97;100.00;102138.88;5028404;28;20292;-77
2024/01/30 00:56:10;;;;;;;29.85;14.82;;;;;;;5.69;100.00;102123.88;5046567;28;20074;-77
2024/01/30 00:58:36;;;;;;;28.20;16.07;;;;;;;5.85;100.00;102174.06;5026799;28;20408;-76
2024/01/30 01:01:01;;;;;;;32.73;15.40;;;;;;;5.86;100.00;102163.38;5028211;28;20412;-76
2024/01/30 01:03:26;;;;;;;29.80;16.13;;;;;;;5.85;100.00;102166.13;5029609;28;20404;-77
2024/01/30 01:05:52;;;;;;;29.83;14.87;;;;;;;5.97;100.00;102177.78;5046201;28;20083;-76
2024/01/30 01:08:17;;;;;;;26.07;13.97;;;;;;;5.98;100.00;102159.13;5028300;28;20037;-77
2024/01/30 01:10:43;;;;;;;25.67;13.73;;;;;;;6.01;100.00;102150.13;5028286;28;20108;-77
2024/01/30 01:13:08;;;;;;;27.73;14.13;;;;;;;6.00;100.00;102145.78;5011671;28;20041;-77
2024/01/30 01:15:35;;;;;;;26.93;15.80;;;;;;;5.97;100.00;102159.22;5027751;28;20120;-77
2024/01/30 01:18:00;;;;;;;25.13;15.13;;;;;;;5.85;100.00;102153.75;5015267;28;20029;-76
2024/01/30 01:20:25;;;;;;;30.50;15.80;;;;;;;5.92;100.00;102180.69;5031518;28;20542;-77
2024/01/30 01:22:52;;;;;;;25.73;15.03;;;;;;;5.96;100.00;102174.28;5029594;28;20396;-75
2024/01/30 01:25:17;;;;;;;26.42;15.95;;;;;;;5.96;100.00;102170.78;5028990;28;20037;-77
2024/01/30 01:27:44;;;;;;;31.77;16.77;;;;;;;5.92;100.00;102163.00;5028797;28;20044;-77
2024/01/30 01:30:11;;;;;;;32.75;15.77;;;;;;;6.02;100.00;102170.41;5029708;28;20037;-77
2024/01/30 01:32:38;;;;;;;31.17;15.15;;;;;;;6.09;100.00;102166.41;5027193;28;20392;-76
2024/01/30 01:35:05;;;;;;;27.92;15.07;;;;;;;6.01;100.00;102142.19;5007389;28;20029;-77
2024/01/30 01:37:31;;;;;;;28.30;14.82;;;;;;;6.08;100.00;102133.72;5014266;28;20025;-76
2024/01/30 01:39:56;;;;;;;29.15;14.38;;;;;;;6.10;100.00;102123.03;5027585;28;20033;-77
2024/01/30 01:42:22;;;;;;;22.87;14.37;;;;;;;6.07;100.00;102099.38;5030105;28;20068;-77
2024/01/30 01:44:47;;;;;;;32.00;14.75;;;;;;;6.09;100.00;102092.16;5025378;28;20547;-77
2024/01/30 01:47:13;;;;;;;24.23;14.33;;;;;;;6.12;100.00;102084.00;5012547;28;20098;-77
2024/01/30 01:49:38;;;;;;;22.35;12.43;;;;;;;6.14;100.00;102058.25;5044078;28;20499;-76
2024/01/30 01:52:04;;;;;;;26.05;13.55;;;;;;;6.07;100.00;102009.22;5027219;28;20017;-77
2024/01/30 01:54:30;;;;;;;24.27;13.15;;;;;;;6.20;100.00;101996.81;5045462;28;20037;-77
2024/01/30 01:56:56;;;;;;;22.92;12.32;;;;;;;6.04;100.00;101933.41;5028736;28;20029;-76
2024/01/30 01:59:23;;;;;;;22.33;12.95;;;;;;;6.10;100.00;101934.75;5029947;28;20044;-77
2024/01/30 02:01:49;;;;;;;19.23;12.25;;;;;;;6.21;100.00;101910.19;5042725;28;20029;-78
2024/01/30 02:04:15;;;;;;;20.48;11.15;;;;;;;6.31;100.00;101903.28;5012145;28;20116;-77
2024/01/30 02:06:41;;;;;;;24.30;12.43;;;;;;;6.28;100.00;101861.91;5045098;28;20203;-77
2024/01/30 02:09:06;;;;;;;20.08;11.35;;;;;;;6.26;100.00;101849.72;5048129;28;20067;-77
2024/01/30 02:11:32;;;;;;;22.08;12.30;;;;;;;6.25;100.00;101830.31;5028793;28;20469;-77
2024/01/30 02:14:03;;;;;;;25.45;12.38;;;;;;;6.13;100.00;101792.25;5027109;28;20066;-77
2024/01/30 02:16:28;;;;;;;22.00;12.98;;;;;;;6.10;100.00;101770.38;5043743;28;20250;-77
2024/01/30 02:18:53;;;;;;;19.67;11.17;;;;;;;6.09;100.00;101768.69;5025377;28;20048;-76
2024/01/30 02:21:19;;;;;;;18.90;10.33;;;;;;;6.11;100.00;101766.75;5025974;28;20036;-78
2024/01/30 02:23:46;;;;;;;20.30;11.23;;;;;;;6.09;100.00;101753.63;5024532;28;20088;-77
2024/01/30 02:26:12;;;;;;;25.35;12.60;;;;;;;6.05;100.00;101754.78;5026768;28;20460;-77
2024/01/30 02:28:38;;;;;;;20.67;11.75;;;;;;;6.14;100.00;101755.97;5039767;28;20431;-76
2024/01/30 02:31:04;;;;;;;20.05;11.75;;;;;;;6.04;100.00;101721.31;5024304;28;20027;-76
2024/01/30 02:33:29;;;;;;;18.35;11.48;;;;;;;6.10;100.00;101750.00;5041132;28;20407;-77
2024/01/30 02:35:55;;;;;;;18.27;10.25;;;;;;;6.17;100.00;101750.44;5011701;28;20041;-77
2024/01/30 02:38:20;;;;;;;19.23;11.80;;;;;;;6.16;100.00;101748.75;5027033;28;20064;-77
2024/01/30 02:40:45;;;;;;;19.50;10.80;;;;;;;6.19;100.00;101752.97;5010542;28;20176;-75
2024/01/30 02:43:11;;;;;;;24.27;12.60;;;;;;;5.99;100.00;101722.56;5008561;28;20155;-76
2024/01/30 02:45:37;;;;;;;22.75;12.25;;;;;;;5.98;100.00;101736.78;5023203;28;20037;-77
2024/01/30 02:48:02;;;;;;;20.73;10.87;;;;;;;6.07;100.00;101765.31;5017820;28;20032;-76
2024/01/30 02:50:28;;;;;;;21.45;11.65;;;;;;;6.10;100.00;101773.03;5024415;28;20102;-77
2024/01/30 02:52:53;;;;;;;24.13;12.23;;;;;;;6.11;100.00;101769.41;5024886;28;20040;-78
2024/01/30 02:55:19;;;;;;;22.33;11.57;;;;;;;6.03;100.00;101732.00;5026567;28;20035;-77
2024/01/30 02:57:44;;;;;;;22.85;13.27;;;;;;;5.97;100.00;101732.44;5023180;28;20047;-77
2024/01/30 03:00:10;;;;;;;19.83;12.05;;;;;;;6.05;100.00;101756.59;5012587;28;20036;-78
2024/01/30 03:02:36;;;;;;;21.15;11.63;;;;;;;6.04;100.00;101738.97;5025732;28;20029;-76
2024/01/30 03:05:03;;;;;;;;;;;;;;;6.01;100.00;101725.97;5023167;28;20094;-76
2024/01/30 03:07:29;;;;;;;20.25;12.00;;;;;;;5.95;100.00;101724.59;5046069;28;19940;-79
2024/01/30 03:09:55;;;;;;;28.27;12.98;;;;;;;5.91;100.00;101734.53;5019848;28;20120;-76
2024/01/30 03:12:21;;;;;;;22.17;13.57;;;;;;;5.83;100.00;101725.41;5029193;28;20032;-75
2024/01/30 03:14:46;;;;;;;21.58;12.95;;;;;;;5.71;100.00;101737.72;5007154;28;20503;-76
2024/01/30 03:17:11;;;;;;;26.63;12.30;;;;;;;5.71;100.00;101758.91;5045249;28;20120;-77
2024/01/30 03:19:37;;;;;;;23.37;11.80;;;;;;;5.62;100.00;101764.84;5011319;28;20033;-76
2024/01/30 03:22:02;;;;;;;18.60;11.37;;;;;;;5.63;100.00;101771.84;5025555;28;20041;-75
2024/01/30 03:24:28;;;;;;;23.25;11.90;;;;;;;5.59;100.00;101765.91;5028201;28;20112;-77
2024/01/30 03:26:53;;;;;;;26.03;13.23;;;;;;;5.49;100.00;101765.69;5042703;28;20036;-76
2024/01/30 03:29:18;;;;;;;21.97;12.90;;;;;;;5.50;100.00;101800.97;5043957;28;20037;-76
2024/01/30 03:31:44;;;;;;;28.50;13.60;;;;;;;5.39;100.00;101788.47;5044504;28;20285;-77
2024/01/30 03:34:09;;;;;;;25.40;13.77;;;;;;;5.33;100.00;101833.88;5036159;28;20091;-76
2024/01/30 03:36:34;;;;;;;26.60;14.73;;;;;;;5.49;100.00;101873.44;5028036;28;20064;-75
2024/01/30 03:39:00;;;;;;;26.77;13.47;;;;;;;5.49;100.00;101881.41;5010464;28;20288;-78
2024/01/30 03:41:26;;;;;;;32.05;14.82;;;;;;;5.48;100.00;101875.25;5024755;28;20037;-75
2024/01/30 03:43:51;;;;;;;27.70;15.13;;;;;;;5.43;100.00;101874.72;5041062;28;20472;-76
2024/01/30 03:46:17;;;;;;;24.97;14.93;;;;;;;5.38;100.00;101884.75;5027863;28;20036;-76
2024/01/30 03:48:42;;;;;;;25.30;15.15;;;;;;;5.41;100.00;101899.63;5016215;28;20029;-74
2024/01/30 03:51:08;;;;;;;27.23;15.38;;;;;;;5.46;100.00;101903.66;5007215;28;20051;-76
2024/01/30 03:53:34;;;;;;;25.90;13.88;;;;;;;5.35;100.00;101884.97;5045258;28;20035;-76
2024/01/30 03:55:59;;;;;;;26.77;16.08;;;;;;;5.38;100.00;101890.03;5044317;28;20506;-76
2024/01/30 03:58:24;;;;;;;28.47;14.60;;;;;;;5.47;100.00;101894.72;5027776;28;20064;-76
2024/01/30 04:00:50;;;;;;;25.80;15.03;;;;;;;5.30;100.00;101842.03;5021789;28;20215;-77
2024/01/30 04:03:15;;;;;;;24.03;14.87;;;;;;;5.29;100.00;101878.28;5027776;28;20275;-76
2024/01/30 04:05:41;;;;;;;26.33;14.10;;;;;;;5.31;100.00;101872.84;5023922;28;20048;-75
2024/01/30 04:08:07;;;;;;;24.25;14.30;;;;;;;5.23;100.00;101864.59;5046175;28;20017;-76
2024/01/30 04:10:33;;;;;;;25.30;12.38;;;;;;;5.17;100.00;101854.38;5026158;28;20155;-76
2024/01/30 04:12:59;;;;;;;26.63;14.32;;;;;;;5.03;100.00;101857.94;5020871;28;20072;-75
2024/01/30 04:15:25;;;;;;;21.30;13.27;;;;;;;5.01;100.00;101858.03;5010068;28;20036;-77
2024/01/30 04:17:50;;;;;;;30.33;14.57;;;;;;;4.94;100.00;101863.81;5043913;28;20176;-75
2024/01/30 04:20:16;;;;;;;29.52;14.48;;;;;;;4.93;100.00;101862.97;5030688;28;20033;-75
2024/01/30 04:22:45;;;;;;;24.23;15.52;;;;;;;4.76;100.00;101836.75;5040028;28;20124;-76
2024/01/30 04:25:11;;;;;;;27.55;15.90;;;;;;;4.53;100.00;101846.97;5031091;28;20032;-75
2024/01/30 04:27:36;;;;;;;;;;;;;;;4.49;100.00;101901.00;5031001;28;20048;-78
2024/01/30 04:30:02;;;;;;;26.00;16.17;;;;;;;4.52;100.00;101935.22;5014913;28;19909;-75
2024/01/30 04:32:27;;;;;;;27.15;14.90;;;;;;;4.50;100.00;101929.16;5025267;28;20075;-76
2024/01/30 04:34:52;;;;;;;27.10;14.20;;;;;;;4.35;100.00;101914.22;5012234;28;20112;-76
2024/01/30 04:37:18;;;;;;;29.30;14.43;;;;;;;4.27;100.00;101916.50;5045320;28;20305;-77
2024/01/30 04:39:43;;;;;;;31.63;15.90;;;;;;;4.26;100.00;101920.94;5030492;28;20037;-75
2024/01/30 04:42:08;;;;;;;31.33;16.08;;;;;;;4.09;100.00;101892.88;5045162;28;20436;-77
2024/01/30 04:44:34;;;;;;;27.00;15.83;;;;;;;4.03;100.00;101903.81;5048410;28;20040;-75
2024/01/30 04:47:01;;;;;;;24.33;14.23;;;;;;;3.95;100.00;101884.91;5014093;28;20087;-77
2024/01/30 04:49:27;;;;;;;31.40;15.95;;;;;;;3.88;100.00;101883.59;5030745;28;20033;-76
2024/01/30 04:51:52;;;;;;;31.10;16.05;;;;;;;3.84;100.00;101892.63;5012530;28;20056;-77
2024/01/30 04:54:17;;;;;;;29.43;16.17;;;;;;;3.86;100.00;101914.53;5030893;28;20112;-78
2024/01/30 04:56:43;;;;;;;28.53;16.53;;;;;;;3.84;100.00;101911.13;5044919;28;20063;-77
2024/01/30 04:59:08;;;;;;;39.63;20.37;;;;;;;3.91;100.00;101920.38;5026464;28;20283;-76
2024/01/30 05:01:34;;;;;;;36.05;19.13;;;;;;;3.95;100.00;101935.97;5013951;28;20378;-76
2024/01/30 05:04:00;;;;;;;34.17;16.30;;;;;;;3.96;100.00;101927.13;5044289;28;20065;-77
2024/01/30 05:06:26;;;;;;;36.90;18.45;;;;;;;3.91;100.00;101918.63;5008527;28;20292;-77
2024/01/30 05:08:51;;;;;;;;;;;;;;;3.88;100.00;101908.22;5013711;28;20048;-75
2024/01/30 05:11:16;;;;;;;25.25;14.45;;;;;;;3.85;100.00;101910.19;5013626;28;19927;-76
2024/01/30 05:13:42;;;;;;;31.80;14.87;;;;;;;3.81;100.00;101922.72;5013634;28;20037;-76
2024/01/30 05:16:07;;;;;;;25.87;15.30;;;;;;;3.89;100.00;101935.50;5025982;28;20832;-76
2024/01/30 05:18:32;;;;;;;24.77;14.25;;;;;;;3.83;100.00;101904.16;5029983;28;20029;-75
2024/01/30 05:20:58;;;;;;;27.83;13.63;;;;;;;3.88;100.00;101920.56;5029965;28;20041;-75
2024/01/30 05:23:23;;;;;;;31.80;15.63;;;;;;;3.91;100.00;101901.88;5030310;28;20027;-76
2024/01/30 05:25:48;;;;;;;30.70;16.27;;;;;;;3.73;100.00;101851.00;5004494;28;20318;-77
2024/01/30 05:28:14;;;;;;;26.47;14.37;;;;;;;3.71;100.00;101874.03;5047895;28;20040;-76
2024/01/30 05:30:39;;;;;;;26.37;16.43;;;;;;;3.72;100.00;101879.22;5029881;28;20287;-76
2024/01/30 05:33:04;;;;;;;24.47;14.57;;;;;;;3.63;100.00;101857.75;5012875;28;20040;-76
2024/01/30 05:35:30;;;;;;;29.70;14.90;;;;;;;3.59;100.00;101854.47;5043303;28;20278;-76
2024/01/30 05:37:55;;;;;;;30.63;15.68;;;;;;;3.57;100.00;101859.00;5043608;28;20033;-75
2024/01/30 05:40:21;;;;;;;25.73;15.07;;;;;;;3.46;100.00;101841.13;5027800;28;20037;-75
2024/01/30 05:42:47;;;;;;;25.73;15.98;;;;;;;3.36;100.00;101834.69;5013097;28;20033;-76
2024/01/30 05:45:13;;;;;;;25.75;13.80;;;;;;;3.29;100.00;101849.19;5009089;28;20036;-76
2024/01/30 05:47:38;;;;;;;21.55;13.45;;;;;;;3.31;100.00;101864.00;5013185;28;20093;-77
2024/01/30 05:50:05;;;;;;;22.85;13.45;;;;;;;3.42;100.00;101912.66;5010974;28;20070;-77
2024/01/30 05:52:30;;;;;;;21.23;13.88;;;;;;;3.42;100.00;101904.75;5008992;28;20055;-76
2024/01/30 05:54:55;;;;;;;22.20;13.10;;;;;;;3.45;100.00;101899.31;5047082;28;20099;-75
2024/01/30 05:57:20;;;;;;;21.97;13.13;;;;;;;3.41;100.00;101884.56;5028133;28;20041;-74
2024/01/30 05:59:47;;;;;;;22.77;12.90;;;;;;;3.40;100.00;101881.09;5025886;28;20288;-75
2024/01/30 06:02:13;;;;;;;25.42;13.05;;;;;;;3.42;100.00;101878.34;5021307;28;20503;-75
2024/01/30 06:04:39;;;;;;;;;;;;;;;3.56;100.00;101915.41;5013017;28;20064;-75
2024/01/30 06:07:06;;;;;;;24.77;13.40;;;;;;;3.57;100.00;101922.38;5029313;28;19970;-76
2024/01/30 06:09:31;;;;;;;25.15;13.40;;;;;;;3.58;100.00;101929.34;5028803;28;20055;-76
2024/01/30 06:11:57;;;;;;;22.40;12.15;;;;;;;3.90;100.00;101988.25;5046594;28;20021;-76
2024/01/30 06:14:23;;;;;;;23.73;13.18;;;;;;;3.98;100.00;101964.00;5046596;28;20075;-77
2024/01/30 06:16:49;;;;;;;25.17;12.90;;;;;;;4.12;100.00;101960.53;5046639;28;20037;-77
2024/01/30 06:19:14;;;;;;;24.23;12.65;;;;;;;4.15;100.00;101932.16;5030370;28;20040;-78
2024/01/30 06:21:39;;;;;;;21.58;13.02;;;;;;;4.17;100.00;101922.34;5029272;28;20060;-75
2024/01/30 06:24:05;;;;;;;25.58;12.13;;;;;;;4.16;100.00;101906.56;5012871;28;20087;-76
2024/01/30 06:26:30;;;;;;;19.67;10.77;;;;;;;4.28;100.00;101910.25;5012045;28;20040;-75
2024/01/30 06:28:56;;;;;;;18.77;11.68;;;;;;;4.31;100.00;101912.72;5022026;28;20041;-76
2024/01/30 06:31:21;;;;;;;18.57;11.13;;;;;;;4.37;100.00;101907.06;5028892;28;20029;-75
2024/01/30 06:33:47;;;;;;;22.42;11.95;;;;;;;4.25;100.00;101876.09;5024560;28;20279;-76
2024/01/30 06:36:12;;;;;;;21.77;12.93;;;;;;;4.42;100.00;101891.75;5021488;28;20024;-77
2024/01/30 06:38:38;;;;;;;22.43;11.63;;;;;;;4.45;100.00;101881.00;5021727;28;20041;-75
2024/01/30 06:41:03;;;;;;;20.20;11.57;;;;;;;4.43;100.00;101880.25;5026988;28;20294;-76
2024/01/30 06:43:29;;;;;;;18.40;10.88;;;;;;;4.48;100.00;101878.16;5012160;28;20285;-77
2024/01/30 06:45:54;;;;;;;18.52;11.48;;;;;;;4.55;100.00;101868.91;5028404;28;20047;-75
2024/01/30 06:48:19;;;;;;;22.37;12.53;;;;;;;4.57;100.00;101860.88;5012162;28;20032;-76
2024/01/30 06:50:46;;;;;;;20.13;11.33;;;;;;;4.65;100.00;101854.13;5028944;28;20032;-77
2024/01/30 06:53:11;;;;;;;19.00;11.95;;;;;;;4.57;100.00;101823.84;5028782;28;20774;-77
2024/01/30 06:55:36;;;;;;;23.43;12.43;;;;;;;4.67;100.00;101824.09;5012822;28;20048;-77
2024/01/30 06:58:02;;;;;;;25.90;13.77;;;;;;;4.59;100.00;101809.56;5020827;28;20275;-77
2024/01/30 07:00:27;;;;;;;18.27;11.45;;;;;;;4.50;100.00;101794.28;5024270;28;20128;-78
2024/01/30 07:02:53;;;;;;;22.73;11.30;;;;;;;4.57;100.00;101806.19;5026821;28;20033;-75
2024/01/30 07:05:18;;;;;;;17.42;11.02;;;;;;;4.61;100.00;101797.09;5029345;28;20303;-77
2024/01/30 07:07:43;;;;;;;22.38;13.70;;;;;;;4.59;100.00;101796.34;5029543;28;20048;-78
2024/01/30 07:10:09;;;;;;;20.07;12.20;;;;;;;4.58;100.00;101794.63;5029932;28;20051;-77
2024/01/30 07:12:34;;;;;;;19.13;12.13;;;;;;;4.58;100.00;101807.03;5013579;28;20343;-75
2024/01/30 07:14:59;;;;;;;20.48;11.90;;;;;;;4.58;100.00;101799.94;5021222;28;20049;-75
2024/01/30 07:17:25;;;;;;;22.90;13.52;;;;;;;4.51;100.00;101790.69;5047431;28;20051;-75
2024/01/30 07:19:50;;;;;;;25.43;13.00;;;;;;;4.43;100.00;101800.91;5046032;28;20038;-76
2024/01/30 07:22:15;;;;;;;21.77;12.70;;;;;;;4.43;100.00;101833.50;5012334;28;20040;-76
2024/01/30 07:24:49;;;;;;;23.47;12.67;;;;;;;4.43;100.00;101844.06;5028770;28;20371;-76
2024/01/30 07:27:14;;;;;;;22.60;12.52;;;;;;;4.49;100.00;101857.84;5029330;28;20037;-76
2024/01/30 07:29:40;;;;;;;20.77;12.32;;;;;;;4.55;100.00;101854.84;5027899;28;20404;-76
2024/01/30 07:32:05;;;;;;;25.55;13.55;;;;;;;4.58;100.00;101852.81;5027979;28;20028;-76
2024/01/30 07:34:31;;;;;;;22.17;13.85;;;;;;;4.56;100.00;101849.44;5012413;28;20025;-76
2024/01/30 07:36:56;;;;;;;26.00;14.00;;;;;;;4.55;100.00;101846.91;5012309;28;20396;-76
2024/01/30 07:39:21;;;;;;;21.60;13.93;;;;;;;4.59;100.00;101849.25;5044168;28;20111;-77
2024/01/30 07:41:47;;;;;;;21.70;12.57;;;;;;;4.56;100.00;101853.88;5041980;28;20515;-76
2024/01/30 07:44:12;;;;;;;28.43;13.67;;;;;;;4.58;100.00;101860.75;5028863;28;20083;-76
2024/01/30 07:46:37;;;;;;;23.20;12.37;;;;;;;4.58;100.00;101878.44;5027806;28;20279;-76
2024/01/30 07:49:03;;;;;;;26.70;13.73;;;;;;;4.53;100.00;101886.66;5018589;28;20491;-76
2024/01/30 07:51:31;;;;;;;21.47;13.83;;;;;;;4.70;100.00;101914.69;5039751;28;20589;-76
2024/01/30 07:53:57;;;;;;;21.45;11.98;;;;;;;4.85;100.00;101908.44;5015806;28;20032;-76
2024/01/30 07:56:22;;;;;;;20.30;13.60;;;;;;;4.79;100.00;101881.53;5049804;28;20033;-76
2024/01/30 07:58:47;;;;;;;22.20;13.47;;;;;;;4.94;100.00;101908.81;5015440;28;20047;-75
2024/01/30 08:01:15;;;;;;;24.47;13.33;;;;;;;4.94;100.00;101912.31;5047185;28;20025;-75
2024/01/30 08:03:41;;;;;;;26.10;15.25;;;;;;;4.98;100.00;101897.91;5032294;28;20043;-78
2024/01/30 08:06:07;;;;;;;29.98;16.65;;;;;;;4.99;100.00;101894.34;5031552;28;20043;-75
2024/01/30 08:08:32;;;;;;;28.58;17.33;;;;;;;5.17;100.00;101902.03;5049854;28;20033;-76
2024/01/30 08:10:57;;;;;;;25.92;14.70;;;;;;;5.05;100.00;101851.59;5031857;28;20072;-77
2024/01/30 08:13:23;;;;;;;25.33;13.73;;;;;;;5.05;100.00;101858.69;5049853;28;20033;-76
2024/01/30 08:15:48;;;;;;;25.53;14.77;;;;;;;5.11;100.00;101846.84;5031885;28;20052;-76
2024/01/30 08:18:13;;;;;;;30.70;18.47;;;;;;;5.12;100.00;101844.09;5031074;28;20052;-74
2024/01/30 08:20:39;;;;;;;27.27;15.20;;;;;;;5.14;100.00;101844.00;5031603;28;20432;-75
2024/01/30 08:23:04;;;;;;;29.70;16.25;;;;;;;5.10;100.00;101845.16;5032512;28;20115;-79
2024/01/30 08:25:29;;;;;;;39.73;18.80;;;;;;;5.23;100.00;101859.28;5047858;28;20033;-80
2024/01/30 08:27:55;;;;;;;25.87;16.27;;;;;;;5.26;100.00;101844.03;5029979;28;20279;-77
2024/01/30 08:30:20;;;;;;;23.33;13.82;;;;;;;5.27;100.00;101839.63;5032806;28;20040;-76
2024/01/30 08:32:46;;;;;;;24.40;12.97;;;;;;;5.24;100.00;101842.44;5032666;28;20033;-78
2024/01/30 08:35:14;;;;;;;;;;;;;;;5.31;100.00;101843.72;5033030;28;20295;-77
2024/01/30 08:37:40;;;;;;;23.52;13.00;;;;;;;5.29;100.00;101837.69;5050157;28;19936;-77
2024/01/30 08:40:08;;;;;;;21.00;12.10;;;;;;;5.44;100.00;101846.44;5012646;28;20200;-78
2024/01/30 08:42:33;;;;;;;25.73;14.60;;;;;;;5.44;100.00;101828.72;5027400;28;20278;-77
2024/01/30 08:44:59;;;;;;;21.55;13.60;;;;;;;5.43;100.00;101811.16;5015356;28;20450;-77
2024/01/30 08:47:25;;;;;;;23.00;12.50;;;;;;;5.56;100.00;101834.16;5017773;28;20036;-80
2024/01/30 08:49:50;;;;;;;24.08;14.05;;;;;;;5.39;100.00;101811.47;5033298;28;20032;-77
2024/01/30 08:52:16;;;;;;;27.80;13.38;;;;;;;5.15;100.00;101805.97;5033178;28;20032;-77
2024/01/30 08:54:41;;;;;;;23.60;13.48;;;;;;;5.21;100.00;101866.47;5034158;28;20032;-77
2024/01/30 08:57:07;;;;;;;23.67;13.27;;;;;;;5.33;100.00;101870.97;5031960;28;20040;-77
2024/01/30 08:59:33;;;;;;;24.58;12.65;;;;;;;5.33;100.00;101884.19;5011432;28;20306;-77
2024/01/30 09:01:59;;;;;;;;;;;;;;;5.48;100.00;101869.97;5034425;28;20096;-77
2024/01/30 09:04:24;;;;;;;22.17;12.85;;;;;;;5.60;100.00;101870.94;5017287;28;19913;-79
2024/01/30 09:06:50;;;;;;;23.05;13.73;;;;;;;5.66;100.00;101859.06;5026700;28;20041;-77
2024/01/30 09:09:15;;;;;;;23.35;13.43;;;;;;;5.48;100.00;101842.63;5051319;28;20116;-77
2024/01/30 09:11:40;;;;;;;19.73;11.88;;;;;;;5.55;100.00;101862.47;5033821;28;20033;-77
2024/01/30 09:14:06;;;;;;;18.07;11.73;;;;;;;5.82;100.00;101888.88;5033058;28;20033;-77
2024/01/30 09:16:32;;;;;;;22.38;12.43;;;;;;;5.88;100.00;101850.53;5033185;28;20029;-77
2024/01/30 09:18:57;;;;;;;20.33;12.93;;;;;;;5.97;100.00;101827.84;5051308;28;20037;-76
2024/01/30 09:21:23;;;;;;;23.17;13.73;;;;;;;5.98;100.00;101811.00;5033642;28;20365;-77
2024/01/30 09:23:48;;;;;;;22.48;13.20;;;;;;;6.08;100.00;101799.63;5013207;28;20619;-76
2024/01/30 09:26:14;;;;;;;20.90;13.20;;;;;;;5.78;100.00;101781.38;5032926;28;20024;-78
2024/01/30 09:28:39;;;;;;;22.77;13.47;;;;;;;6.17;100.00;101845.88;5033294;28;20049;-78
2024/01/30 09:31:09;;;;;;;22.83;12.25;;;;;;;6.09;100.00;101833.16;5051373;28;20104;-79
2024/01/30 09:33:36;;;;;;;24.70;13.23;;;;;;;6.36;100.00;101861.34;5016368;28;20136;-77
2024/01/30 09:36:01;;;;;;;;;;;;;;;6.43;100.00;101845.84;5032550;28;20531;-77
2024/01/30 09:38:26;;;;;;;66.53;30.75;;;;;;;6.36;100.00;101820.72;5013051;28;20007;-77
2024/01/30 09:40:57;;;;;;;56.67;29.43;;;;;;;6.36;100.00;101795.03;5027107;28;20088;-78
2024/01/30 09:43:23;;;;;;;49.13;24.08;;;;;;;6.41;100.00;101810.63;5028210;28;20079;-76
2024/01/30 09:45:50;;;;;;;37.90;19.75;;;;;;;6.44;100.00;101805.09;5015870;28;20021;-77
2024/01/30 09:48:16;;;;;;;36.63;19.73;;;;;;;6.65;100.00;101806.22;5031312;28;20061;-77
2024/01/30 09:50:41;;;;;;;33.93;19.33;;;;;;;6.71;100.00;101796.97;5031198;28;20048;-76
2024/01/30 09:53:08;;;;;;;31.27;18.20;;;;;;;7.02;100.00;101786.75;5004450;28;20367;-76
2024/01/30 09:55:35;;;;;;;31.75;18.80;;;;;;;7.01;100.00;101738.09;5037979;28;20025;-77
2024/01/30 09:58:01;;;;;;;25.52;16.88;;;;;;;6.82;100.00;101693.50;5043188;28;20032;-77
2024/01/30 10:00:27;;;;;;;29.73;17.40;;;;;;;6.95;100.00;101744.75;5030604;28;20476;-76
2024/01/30 10:02:53;;;;;;;28.25;16.65;;;;;;;6.89;100.00;101699.22;5041027;28;20451;-76
2024/01/30 10:05:20;;;;;;;25.00;15.23;;;;;;;7.11;100.00;101778.09;5026403;28;20037;-75
2024/01/30 10:07:58;;;;;;;;;;;;;;;8.03;100.00;101958.06;5041380;28;20103;-77
2024/01/30 10:10:23;;;;;;;26.70;15.98;;;;;;;8.03;100.00;101739.97;5019325;28;20435;-76
2024/01/30 10:12:49;;;;;;;39.00;24.10;;;;;;;7.63;100.00;101596.06;5043997;28;20029;-76
2024/01/30 10:15:14;;;;;;;42.10;26.13;;;;;;;7.47;100.00;101530.03;5047153;28;20124;-75
2024/01/30 10:17:40;;;;;;;49.55;30.45;;;;;;;7.36;100.00;101551.28;5047705;28;20029;-77
2024/01/30 10:20:07;;;;;;;44.22;26.90;;;;;;;7.24;100.00;101597.41;5043313;28;20041;-75
2024/01/30 10:22:33;;;;;;;56.97;32.88;;;;;;;7.34;100.00;101630.25;5047733;28;20029;-76
2024/01/30 10:24:59;;;;;;;59.15;36.17;;;;;;;7.40;100.00;101661.66;5046542;28;20035;-77
2024/01/30 10:27:29;;;;;;;47.95;28.50;;;;;;;7.25;100.00;101623.84;5029395;28;20040;-77
2024/01/30 10:29:55;;;;;;;47.15;26.90;;;;;;;7.16;100.00;101629.88;5029596;28;20702;-76
2024/01/30 10:32:21;;;;;;;48.72;24.98;;;;;;;7.21;100.00;101678.19;5044446;28;20036;-76
2024/01/30 10:34:47;;;;;;;53.45;31.55;;;;;;;7.49;100.00;101686.66;5022679;28;20508;-76
2024/01/30 10:37:15;;;;;;;63.13;34.65;;;;;;;7.61;100.00;101689.22;5028732;28;20044;-76
2024/01/30 10:39:41;;;;;;;68.10;36.30;;;;;;;7.52;100.00;101639.44;5021087;28;20036;-76
2024/01/30 10:42:14;;;;;;;49.38;27.02;;;;;;;7.48;100.00;101653.94;5012758;28;20483;-76
2024/01/30 10:44:58;;;;;;;39.40;21.23;;;;;;;7.76;100.00;101688.97;5029101;28;20522;-76
2024/01/30 10:47:28;;;;;;;32.85;19.77;;;;;;;7.63;100.00;101656.34;5039939;28;20044;-76
2024/01/30 10:49:55;;;;;;;33.25;20.88;;;;;;;7.55;100.00;101649.81;5039928;28;20029;-76
2024/01/30 10:52:23;;;;;;;46.92;23.27;;;;;;;7.67;100.00;101724.25;5040617;28;20361;-77
2024/01/30 10:54:50;;;;;;;53.88;27.85;;;;;;;7.95;100.00;101742.38;5007492;28;20897;-75
2024/01/30 10:57:17;;;;;;;58.45;29.75;;;;;;;8.14;100.00;101682.41;5034822;28;20125;-76
2024/01/30 10:59:43;;;;;;;50.15;27.08;;;;;;;8.24;100.00;101635.44;5038193;28;20025;-76
2024/01/30 11:02:09;;;;;;;;;;;;;;;8.25;100.00;101587.44;5030033;28;20146;-76
2024/01/30 11:04:40;;;;;;;46.30;25.13;;;;;;;8.30;100.00;101581.75;5044570;28;19916;-76